sensor_id;sensor_type;location;lat;lon;timestamp;P1;durP1;ratioP1;P2;durP2;ratioP2
56911;SDS011;42800;53.928;27.662;2023-04-20T00:00:40;20.02;;;7.68;;
56911;SDS011;42800;53.928;27.662;2023-04-20T00:03:07;16.88;;;7.30;;
56911;SDS011;42800;53.928;27.662;2023-04-20T00:05:34;13.65;;;6.68;;
56911;SDS011;42800;53.928;27.662;2023-04-20T00:08:01;14.48;;;7.38;;
56911;SDS011;42800;53.928;27.662;2023-04-20T00:10:27;11.38;;;7.20;;
56911;SDS011;42800;53.928;27.662;2023-04-20T00:12:53;19.20;;;7.03;;
56911;SDS011;42800;53.928;27.662;2023-04-20T00:15:19;14.73;;;7.25;;
56911;SDS011;42800;53.928;27.662;2023-04-20T00:17:45;13.57;;;6.90;;
56911;SDS011;42800;53.928;27.662;2023-04-20T00:20:12;20.05;;;7.45;;
56911;SDS011;42800;53.928;27.662;2023-04-20T00:22:40;15.52;;;7.32;;
56911;SDS011;42800;53.928;27.662;2023-04-20T00:25:06;12.35;;;7.38;;
56911;SDS011;42800;53.928;27.662;2023-04-20T00:27:32;16.67;;;7.68;;
56911;SDS011;42800;53.928;27.662;2023-04-20T00:29:58;14.60;;;7.32;;
56911;SDS011;42800;53.928;27.662;2023-04-20T00:32:24;12.77;;;7.75;;
56911;SDS011;42800;53.928;27.662;2023-04-20T00:34:50;11.60;;;7.88;;
56911;SDS011;42800;53.928;27.662;2023-04-20T00:37:16;20.95;;;8.00;;
56911;SDS011;42800;53.928;27.662;2023-04-20T00:39:42;14.88;;;6.95;;
56911;SDS011;42800;53.928;27.662;2023-04-20T00:42:08;12.50;;;7.53;;
56911;SDS011;42800;53.928;27.662;2023-04-20T00:44:34;13.52;;;7.70;;
56911;SDS011;42800;53.928;27.662;2023-04-20T00:47:00;14.82;;;7.10;;
56911;SDS011;42800;53.928;27.662;2023-04-20T00:49:27;15.93;;;7.40;;
56911;SDS011;42800;53.928;27.662;2023-04-20T00:51:54;17.90;;;7.68;;
56911;SDS011;42800;53.928;27.662;2023-04-20T00:54:20;16.30;;;7.93;;
56911;SDS011;42800;53.928;27.662;2023-04-20T00:56:47;14.23;;;7.78;;
56911;SDS011;42800;53.928;27.662;2023-04-20T00:59:14;10.52;;;6.93;;
56911;SDS011;42800;53.928;27.662;2023-04-20T01:01:40;15.50;;;7.82;;
56911;SDS011;42800;53.928;27.662;2023-04-20T01:04:07;15.30;;;7.65;;
56911;SDS011;42800;53.928;27.662;2023-04-20T01:06:33;16.52;;;7.90;;
56911;SDS011;42800;53.928;27.662;2023-04-20T01:08:59;18.83;;;7.10;;
56911;SDS011;42800;53.928;27.662;2023-04-20T01:11:25;18.65;;;7.47;;
56911;SDS011;42800;53.928;27.662;2023-04-20T01:13:52;14.50;;;8.13;;
56911;SDS011;42800;53.928;27.662;2023-04-20T01:16:18;17.35;;;7.65;;
56911;SDS011;42800;53.928;27.662;2023-04-20T01:18:45;12.32;;;7.75;;
56911;SDS011;42800;53.928;27.662;2023-04-20T01:21:13;20.02;;;7.43;;
56911;SDS011;42800;53.928;27.662;2023-04-20T01:23:41;12.32;;;7.05;;
56911;SDS011;42800;53.928;27.662;2023-04-20T01:26:08;13.93;;;7.38;;
56911;SDS011;42800;53.928;27.662;2023-04-20T01:28:35;14.60;;;7.82;;
56911;SDS011;42800;53.928;27.662;2023-04-20T01:31:02;16.67;;;8.70;;
56911;SDS011;42800;53.928;27.662;2023-04-20T01:33:29;15.15;;;7.90;;
56911;SDS011;42800;53.928;27.662;2023-04-20T01:35:55;14.95;;;7.75;;
56911;SDS011;42800;53.928;27.662;2023-04-20T01:38:21;15.13;;;7.85;;
56911;SDS011;42800;53.928;27.662;2023-04-20T01:40:49;15.30;;;8.07;;
56911;SDS011;42800;53.928;27.662;2023-04-20T01:43:16;14.48;;;8.52;;
56911;SDS011;42800;53.928;27.662;2023-04-20T01:45:42;14.48;;;7.80;;
56911;SDS011;42800;53.928;27.662;2023-04-20T01:48:08;12.77;;;8.23;;
56911;SDS011;42800;53.928;27.662;2023-04-20T01:50:34;16.25;;;8.18;;
56911;SDS011;42800;53.928;27.662;2023-04-20T01:53:00;12.02;;;8.18;;
56911;SDS011;42800;53.928;27.662;2023-04-20T01:55:26;20.40;;;8.07;;
56911;SDS011;42800;53.928;27.662;2023-04-20T01:57:53;14.48;;;8.38;;
56911;SDS011;42800;53.928;27.662;2023-04-20T02:00:19;13.85;;;8.20;;
56911;SDS011;42800;53.928;27.662;2023-04-20T02:02:44;18.42;;;8.40;;
56911;SDS011;42800;53.928;27.662;2023-04-20T02:05:10;18.17;;;8.85;;
56911;SDS011;42800;53.928;27.662;2023-04-20T02:07:36;16.90;;;9.20;;
56911;SDS011;42800;53.928;27.662;2023-04-20T02:10:02;15.30;;;7.88;;
56911;SDS011;42800;53.928;27.662;2023-04-20T02:12:29;19.40;;;9.15;;
56911;SDS011;42800;53.928;27.662;2023-04-20T02:14:55;17.05;;;8.85;;
56911;SDS011;42800;53.928;27.662;2023-04-20T02:17:21;17.58;;;8.30;;
56911;SDS011;42800;53.928;27.662;2023-04-20T02:19:48;19.02;;;8.73;;
56911;SDS011;42800;53.928;27.662;2023-04-20T02:22:14;17.33;;;7.97;;
56911;SDS011;42800;53.928;27.662;2023-04-20T02:24:40;17.75;;;8.48;;
56911;SDS011;42800;53.928;27.662;2023-04-20T02:27:07;15.68;;;8.40;;
56911;SDS011;42800;53.928;27.662;2023-04-20T02:29:33;16.63;;;8.65;;
56911;SDS011;42800;53.928;27.662;2023-04-20T02:32:00;12.23;;;7.53;;
56911;SDS011;42800;53.928;27.662;2023-04-20T02:34:26;15.75;;;8.88;;
56911;SDS011;42800;53.928;27.662;2023-04-20T02:36:52;13.90;;;8.52;;
56911;SDS011;42800;53.928;27.662;2023-04-20T02:39:18;15.05;;;8.27;;
56911;SDS011;42800;53.928;27.662;2023-04-20T02:41:44;13.23;;;7.75;;
56911;SDS011;42800;53.928;27.662;2023-04-20T02:44:10;14.48;;;8.32;;
56911;SDS011;42800;53.928;27.662;2023-04-20T02:46:36;23.58;;;7.95;;
56911;SDS011;42800;53.928;27.662;2023-04-20T02:49:02;14.07;;;7.90;;
56911;SDS011;42800;53.928;27.662;2023-04-20T02:51:28;12.18;;;7.18;;
56911;SDS011;42800;53.928;27.662;2023-04-20T02:53:55;16.15;;;7.57;;
56911;SDS011;42800;53.928;27.662;2023-04-20T02:56:21;14.00;;;7.72;;
56911;SDS011;42800;53.928;27.662;2023-04-20T02:58:47;15.68;;;7.20;;
56911;SDS011;42800;53.928;27.662;2023-04-20T03:01:16;15.10;;;7.40;;
56911;SDS011;42800;53.928;27.662;2023-04-20T03:03:42;15.75;;;8.07;;
56911;SDS011;42800;53.928;27.662;2023-04-20T03:06:08;14.45;;;8.32;;
56911;SDS011;42800;53.928;27.662;2023-04-20T03:08:34;14.23;;;7.50;;
56911;SDS011;42800;53.928;27.662;2023-04-20T03:11:01;15.20;;;8.32;;
56911;SDS011;42800;53.928;27.662;2023-04-20T03:13:27;15.80;;;8.38;;
56911;SDS011;42800;53.928;27.662;2023-04-20T03:15:52;15.90;;;8.70;;
56911;SDS011;42800;53.928;27.662;2023-04-20T03:18:18;12.55;;;7.28;;
56911;SDS011;42800;53.928;27.662;2023-04-20T03:20:44;13.65;;;7.45;;
56911;SDS011;42800;53.928;27.662;2023-04-20T03:23:11;15.55;;;8.10;;
56911;SDS011;42800;53.928;27.662;2023-04-20T03:25:37;11.63;;;7.13;;
56911;SDS011;42800;53.928;27.662;2023-04-20T03:28:03;12.65;;;7.72;;
56911;SDS011;42800;53.928;27.662;2023-04-20T03:30:29;11.20;;;8.00;;
56911;SDS011;42800;53.928;27.662;2023-04-20T03:32:55;15.45;;;7.82;;
56911;SDS011;42800;53.928;27.662;2023-04-20T03:35:21;23.65;;;7.45;;
56911;SDS011;42800;53.928;27.662;2023-04-20T03:37:46;16.30;;;8.40;;
56911;SDS011;42800;53.928;27.662;2023-04-20T03:40:13;13.70;;;7.95;;
56911;SDS011;42800;53.928;27.662;2023-04-20T03:42:39;10.70;;;7.45;;
56911;SDS011;42800;53.928;27.662;2023-04-20T03:45:06;15.95;;;7.75;;
56911;SDS011;42800;53.928;27.662;2023-04-20T03:47:32;15.15;;;8.35;;
56911;SDS011;42800;53.928;27.662;2023-04-20T03:49:58;12.82;;;7.03;;
56911;SDS011;42800;53.928;27.662;2023-04-20T03:52:24;11.57;;;6.82;;
56911;SDS011;42800;53.928;27.662;2023-04-20T03:54:50;12.98;;;7.75;;
56911;SDS011;42800;53.928;27.662;2023-04-20T03:57:16;12.32;;;7.10;;
56911;SDS011;42800;53.928;27.662;2023-04-20T03:59:42;20.77;;;8.02;;
56911;SDS011;42800;53.928;27.662;2023-04-20T04:02:08;15.73;;;8.40;;
56911;SDS011;42800;53.928;27.662;2023-04-20T04:04:35;11.10;;;7.15;;
56911;SDS011;42800;53.928;27.662;2023-04-20T04:07:01;16.40;;;7.70;;
56911;SDS011;42800;53.928;27.662;2023-04-20T04:09:27;11.27;;;6.68;;
56911;SDS011;42800;53.928;27.662;2023-04-20T04:11:52;11.25;;;7.00;;
56911;SDS011;42800;53.928;27.662;2023-04-20T04:14:19;9.32;;;6.72;;
56911;SDS011;42800;53.928;27.662;2023-04-20T04:16:45;18.67;;;7.90;;
56911;SDS011;42800;53.928;27.662;2023-04-20T04:19:11;17.45;;;7.78;;
56911;SDS011;42800;53.928;27.662;2023-04-20T04:21:37;14.95;;;7.82;;
56911;SDS011;42800;53.928;27.662;2023-04-20T04:24:03;11.50;;;6.80;;
56911;SDS011;42800;53.928;27.662;2023-04-20T04:26:29;11.00;;;7.38;;
56911;SDS011;42800;53.928;27.662;2023-04-20T04:28:55;16.40;;;7.30;;
56911;SDS011;42800;53.928;27.662;2023-04-20T04:31:22;20.33;;;7.55;;
56911;SDS011;42800;53.928;27.662;2023-04-20T04:33:49;13.63;;;6.95;;
56911;SDS011;42800;53.928;27.662;2023-04-20T04:36:15;24.15;;;7.38;;
56911;SDS011;42800;53.928;27.662;2023-04-20T04:38:41;13.10;;;7.60;;
56911;SDS011;42800;53.928;27.662;2023-04-20T04:41:08;11.20;;;6.95;;
56911;SDS011;42800;53.928;27.662;2023-04-20T04:43:34;17.65;;;7.43;;
56911;SDS011;42800;53.928;27.662;2023-04-20T04:46:05;15.38;;;6.85;;
56911;SDS011;42800;53.928;27.662;2023-04-20T04:48:33;13.40;;;6.53;;
56911;SDS011;42800;53.928;27.662;2023-04-20T04:51:00;10.88;;;7.03;;
56911;SDS011;42800;53.928;27.662;2023-04-20T04:53:26;17.45;;;6.93;;
56911;SDS011;42800;53.928;27.662;2023-04-20T04:55:51;13.35;;;7.28;;
56911;SDS011;42800;53.928;27.662;2023-04-20T04:58:17;17.38;;;7.20;;
56911;SDS011;42800;53.928;27.662;2023-04-20T05:00:43;13.85;;;7.60;;
56911;SDS011;42800;53.928;27.662;2023-04-20T05:03:09;14.13;;;7.00;;
56911;SDS011;42800;53.928;27.662;2023-04-20T05:05:36;16.20;;;6.32;;
56911;SDS011;42800;53.928;27.662;2023-04-20T05:08:02;14.32;;;7.07;;
56911;SDS011;42800;53.928;27.662;2023-04-20T05:10:28;13.90;;;7.68;;
56911;SDS011;42800;53.928;27.662;2023-04-20T05:12:54;17.02;;;7.28;;
56911;SDS011;42800;53.928;27.662;2023-04-20T05:15:22;13.25;;;7.35;;
56911;SDS011;42800;53.928;27.662;2023-04-20T05:17:48;17.23;;;8.10;;
56911;SDS011;42800;53.928;27.662;2023-04-20T05:20:15;14.00;;;7.88;;
56911;SDS011;42800;53.928;27.662;2023-04-20T05:22:41;13.07;;;6.85;;
56911;SDS011;42800;53.928;27.662;2023-04-20T05:25:08;12.35;;;7.05;;
56911;SDS011;42800;53.928;27.662;2023-04-20T05:27:35;15.70;;;7.20;;
56911;SDS011;42800;53.928;27.662;2023-04-20T05:30:01;12.15;;;7.50;;
56911;SDS011;42800;53.928;27.662;2023-04-20T05:32:28;12.35;;;6.82;;
56911;SDS011;42800;53.928;27.662;2023-04-20T05:34:54;12.98;;;6.55;;
56911;SDS011;42800;53.928;27.662;2023-04-20T05:37:19;14.68;;;6.95;;
56911;SDS011;42800;53.928;27.662;2023-04-20T05:39:46;12.52;;;7.55;;
56911;SDS011;42800;53.928;27.662;2023-04-20T05:42:12;11.77;;;6.47;;
56911;SDS011;42800;53.928;27.662;2023-04-20T05:44:38;14.43;;;7.10;;
56911;SDS011;42800;53.928;27.662;2023-04-20T05:47:05;37.55;;;10.77;;
56911;SDS011;42800;53.928;27.662;2023-04-20T05:49:32;16.35;;;7.50;;
56911;SDS011;42800;53.928;27.662;2023-04-20T05:51:58;13.43;;;6.60;;
56911;SDS011;42800;53.928;27.662;2023-04-20T05:54:25;11.93;;;7.10;;
56911;SDS011;42800;53.928;27.662;2023-04-20T05:56:53;11.77;;;6.82;;
56911;SDS011;42800;53.928;27.662;2023-04-20T05:59:19;11.25;;;7.32;;
56911;SDS011;42800;53.928;27.662;2023-04-20T06:01:45;17.35;;;9.68;;
56911;SDS011;42800;53.928;27.662;2023-04-20T06:04:11;11.18;;;7.05;;
56911;SDS011;42800;53.928;27.662;2023-04-20T06:06:37;14.35;;;7.22;;
56911;SDS011;42800;53.928;27.662;2023-04-20T06:09:03;8.80;;;6.45;;
56911;SDS011;42800;53.928;27.662;2023-04-20T06:11:29;14.70;;;9.40;;
56911;SDS011;42800;53.928;27.662;2023-04-20T06:13:56;10.63;;;7.72;;
56911;SDS011;42800;53.928;27.662;2023-04-20T06:16:22;16.27;;;9.00;;
56911;SDS011;42800;53.928;27.662;2023-04-20T06:18:48;14.40;;;6.97;;
56911;SDS011;42800;53.928;27.662;2023-04-20T06:21:14;14.10;;;6.85;;
56911;SDS011;42800;53.928;27.662;2023-04-20T06:23:41;11.02;;;6.13;;
56911;SDS011;42800;53.928;27.662;2023-04-20T06:26:08;9.57;;;6.22;;
56911;SDS011;42800;53.928;27.662;2023-04-20T06:28:34;10.48;;;6.82;;
56911;SDS011;42800;53.928;27.662;2023-04-20T06:31:01;14.95;;;6.85;;
56911;SDS011;42800;53.928;27.662;2023-04-20T06:33:27;11.75;;;6.28;;
56911;SDS011;42800;53.928;27.662;2023-04-20T06:35:53;15.30;;;6.53;;
56911;SDS011;42800;53.928;27.662;2023-04-20T06:38:20;9.38;;;6.70;;
56911;SDS011;42800;53.928;27.662;2023-04-20T06:40:46;9.35;;;6.28;;
56911;SDS011;42800;53.928;27.662;2023-04-20T06:43:12;13.57;;;6.20;;
56911;SDS011;42800;53.928;27.662;2023-04-20T06:45:38;18.48;;;5.80;;
56911;SDS011;42800;53.928;27.662;2023-04-20T06:48:05;10.18;;;6.10;;
56911;SDS011;42800;53.928;27.662;2023-04-20T06:50:31;16.20;;;7.28;;
56911;SDS011;42800;53.928;27.662;2023-04-20T06:52:57;14.00;;;5.95;;
56911;SDS011;42800;53.928;27.662;2023-04-20T06:55:23;10.77;;;6.35;;
56911;SDS011;42800;53.928;27.662;2023-04-20T06:57:49;13.48;;;6.65;;
56911;SDS011;42800;53.928;27.662;2023-04-20T07:00:16;10.73;;;6.47;;
56911;SDS011;42800;53.928;27.662;2023-04-20T07:02:43;14.43;;;6.20;;
56911;SDS011;42800;53.928;27.662;2023-04-20T07:05:10;13.88;;;6.47;;
56911;SDS011;42800;53.928;27.662;2023-04-20T07:07:36;13.48;;;6.28;;
56911;SDS011;42800;53.928;27.662;2023-04-20T07:10:02;17.65;;;6.35;;
56911;SDS011;42800;53.928;27.662;2023-04-20T07:12:29;8.25;;;6.45;;
56911;SDS011;42800;53.928;27.662;2023-04-20T07:14:55;12.10;;;6.38;;
56911;SDS011;42800;53.928;27.662;2023-04-20T07:17:21;16.85;;;7.07;;
56911;SDS011;42800;53.928;27.662;2023-04-20T07:19:46;15.43;;;6.10;;
56911;SDS011;42800;53.928;27.662;2023-04-20T07:22:13;10.52;;;6.10;;
56911;SDS011;42800;53.928;27.662;2023-04-20T07:24:39;16.88;;;6.40;;
56911;SDS011;42800;53.928;27.662;2023-04-20T07:27:05;14.32;;;6.05;;
56911;SDS011;42800;53.928;27.662;2023-04-20T07:29:32;15.40;;;6.00;;
56911;SDS011;42800;53.928;27.662;2023-04-20T07:31:58;10.57;;;5.85;;
56911;SDS011;42800;53.928;27.662;2023-04-20T07:34:24;13.10;;;6.22;;
56911;SDS011;42800;53.928;27.662;2023-04-20T07:36:50;12.70;;;5.35;;
56911;SDS011;42800;53.928;27.662;2023-04-20T07:39:16;12.50;;;6.53;;
56911;SDS011;42800;53.928;27.662;2023-04-20T07:41:42;17.13;;;6.20;;
56911;SDS011;42800;53.928;27.662;2023-04-20T07:44:08;12.27;;;5.85;;
56911;SDS011;42800;53.928;27.662;2023-04-20T07:46:35;15.20;;;5.90;;
56911;SDS011;42800;53.928;27.662;2023-04-20T07:49:01;15.73;;;5.55;;
56911;SDS011;42800;53.928;27.662;2023-04-20T07:51:26;12.07;;;5.95;;
56911;SDS011;42800;53.928;27.662;2023-04-20T07:53:54;10.20;;;5.68;;
56911;SDS011;42800;53.928;27.662;2023-04-20T07:56:21;13.77;;;5.40;;
56911;SDS011;42800;53.928;27.662;2023-04-20T07:58:47;16.77;;;6.63;;
56911;SDS011;42800;53.928;27.662;2023-04-20T08:01:13;32.97;;;8.02;;
56911;SDS011;42800;53.928;27.662;2023-04-20T08:03:39;12.80;;;5.28;;
56911;SDS011;42800;53.928;27.662;2023-04-20T08:06:05;11.57;;;7.53;;
56911;SDS011;42800;53.928;27.662;2023-04-20T08:08:31;15.38;;;6.35;;
56911;SDS011;42800;53.928;27.662;2023-04-20T08:10:57;11.00;;;5.82;;
56911;SDS011;42800;53.928;27.662;2023-04-20T08:13:24;6.65;;;5.45;;
56911;SDS011;42800;53.928;27.662;2023-04-20T08:15:51;8.13;;;6.20;;
56911;SDS011;42800;53.928;27.662;2023-04-20T08:18:17;19.45;;;7.85;;
56911;SDS011;42800;53.928;27.662;2023-04-20T08:20:43;8.95;;;5.50;;
56911;SDS011;42800;53.928;27.662;2023-04-20T08:23:10;9.82;;;5.78;;
56911;SDS011;42800;53.928;27.662;2023-04-20T08:25:37;12.90;;;5.45;;
56911;SDS011;42800;53.928;27.662;2023-04-20T08:28:03;11.25;;;7.65;;
56911;SDS011;42800;53.928;27.662;2023-04-20T08:30:31;15.98;;;6.20;;
56911;SDS011;42800;53.928;27.662;2023-04-20T08:32:57;9.15;;;5.32;;
56911;SDS011;42800;53.928;27.662;2023-04-20T08:35:23;15.07;;;5.30;;
56911;SDS011;42800;53.928;27.662;2023-04-20T08:37:49;25.90;;;5.38;;
56911;SDS011;42800;53.928;27.662;2023-04-20T08:40:15;9.68;;;5.32;;
56911;SDS011;42800;53.928;27.662;2023-04-20T08:42:41;11.70;;;5.05;;
56911;SDS011;42800;53.928;27.662;2023-04-20T08:45:07;10.90;;;4.95;;
56911;SDS011;42800;53.928;27.662;2023-04-20T08:47:34;13.00;;;5.50;;
56911;SDS011;42800;53.928;27.662;2023-04-20T08:50:02;7.47;;;5.15;;
56911;SDS011;42800;53.928;27.662;2023-04-20T08:52:28;12.43;;;5.43;;
56911;SDS011;42800;53.928;27.662;2023-04-20T08:54:54;11.13;;;5.95;;
56911;SDS011;42800;53.928;27.662;2023-04-20T08:57:20;11.52;;;6.20;;
56911;SDS011;42800;53.928;27.662;2023-04-20T08:59:46;20.23;;;5.32;;
56911;SDS011;42800;53.928;27.662;2023-04-20T09:02:12;8.88;;;4.57;;
56911;SDS011;42800;53.928;27.662;2023-04-20T09:04:39;14.43;;;4.80;;
56911;SDS011;42800;53.928;27.662;2023-04-20T09:07:05;8.20;;;4.65;;
56911;SDS011;42800;53.928;27.662;2023-04-20T09:09:51;10.90;;;4.20;;
56911;SDS011;42800;53.928;27.662;2023-04-20T09:12:18;9.05;;;4.60;;
56911;SDS011;42800;53.928;27.662;2023-04-20T09:14:44;6.93;;;4.60;;
56911;SDS011;42800;53.928;27.662;2023-04-20T09:17:12;9.05;;;4.80;;
56911;SDS011;42800;53.928;27.662;2023-04-20T09:19:39;7.05;;;4.15;;
56911;SDS011;42800;53.928;27.662;2023-04-20T09:22:05;8.13;;;4.80;;
56911;SDS011;42800;53.928;27.662;2023-04-20T09:24:32;13.07;;;4.80;;
56911;SDS011;42800;53.928;27.662;2023-04-20T09:26:59;17.67;;;5.13;;
56911;SDS011;42800;53.928;27.662;2023-04-20T09:29:26;10.65;;;6.65;;
56911;SDS011;42800;53.928;27.662;2023-04-20T09:31:54;17.10;;;4.63;;
56911;SDS011;42800;53.928;27.662;2023-04-20T09:34:20;13.10;;;4.50;;
56911;SDS011;42800;53.928;27.662;2023-04-20T09:36:49;13.75;;;4.38;;
56911;SDS011;42800;53.928;27.662;2023-04-20T09:39:19;9.35;;;4.72;;
56911;SDS011;42800;53.928;27.662;2023-04-20T09:41:46;10.43;;;4.88;;
56911;SDS011;42800;53.928;27.662;2023-04-20T09:44:13;5.53;;;4.30;;
56911;SDS011;42800;53.928;27.662;2023-04-20T09:46:40;11.70;;;4.63;;
56911;SDS011;42800;53.928;27.662;2023-04-20T09:49:08;9.82;;;4.45;;
56911;SDS011;42800;53.928;27.662;2023-04-20T09:51:36;10.38;;;6.47;;
56911;SDS011;42800;53.928;27.662;2023-04-20T09:54:04;12.55;;;4.72;;
56911;SDS011;42800;53.928;27.662;2023-04-20T09:56:31;9.30;;;4.18;;
56911;SDS011;42800;53.928;27.662;2023-04-20T09:58:58;13.93;;;4.57;;
56911;SDS011;42800;53.928;27.662;2023-04-20T10:01:25;9.15;;;4.85;;
56911;SDS011;42800;53.928;27.662;2023-04-20T10:03:53;8.70;;;4.57;;
56911;SDS011;42800;53.928;27.662;2023-04-20T10:06:20;9.45;;;4.65;;
56911;SDS011;42800;53.928;27.662;2023-04-20T10:08:47;6.38;;;3.75;;
56911;SDS011;42800;53.928;27.662;2023-04-20T10:11:25;5.35;;;4.13;;
56911;SDS011;42800;53.928;27.662;2023-04-20T10:13:52;7.65;;;4.15;;
56911;SDS011;42800;53.928;27.662;2023-04-20T10:16:18;7.38;;;3.90;;
56911;SDS011;42800;53.928;27.662;2023-04-20T10:18:54;9.73;;;4.15;;
56911;SDS011;42800;53.928;27.662;2023-04-20T10:21:21;11.52;;;4.10;;
56911;SDS011;42800;53.928;27.662;2023-04-20T10:23:47;7.60;;;4.25;;
56911;SDS011;42800;53.928;27.662;2023-04-20T10:26:14;15.52;;;5.00;;
56911;SDS011;42800;53.928;27.662;2023-04-20T10:28:41;12.52;;;6.22;;
56911;SDS011;42800;53.928;27.662;2023-04-20T10:31:09;13.23;;;4.45;;
56911;SDS011;42800;53.928;27.662;2023-04-20T10:33:47;6.55;;;3.88;;
56911;SDS011;42800;53.928;27.662;2023-04-20T10:36:20;6.40;;;4.30;;
56911;SDS011;42800;53.928;27.662;2023-04-20T10:41:13;6.38;;;4.55;;
56911;SDS011;42800;53.928;27.662;2023-04-20T10:43:39;4.82;;;3.75;;
56911;SDS011;42800;53.928;27.662;2023-04-20T10:46:14;16.13;;;5.57;;
56911;SDS011;42800;53.928;27.662;2023-04-20T10:48:54;5.25;;;3.97;;
56911;SDS011;42800;53.928;27.662;2023-04-20T10:51:20;17.30;;;4.75;;
56911;SDS011;42800;53.928;27.662;2023-04-20T10:53:56;17.13;;;4.80;;
56911;SDS011;42800;53.928;27.662;2023-04-20T10:56:23;6.57;;;4.03;;
56911;SDS011;42800;53.928;27.662;2023-04-20T10:58:49;6.88;;;4.07;;
56911;SDS011;42800;53.928;27.662;2023-04-20T11:01:16;15.43;;;4.85;;
56911;SDS011;42800;53.928;27.662;2023-04-20T11:03:42;6.45;;;3.80;;
56911;SDS011;42800;53.928;27.662;2023-04-20T11:06:14;6.82;;;4.07;;
56911;SDS011;42800;53.928;27.662;2023-04-20T11:08:40;12.75;;;4.63;;
56911;SDS011;42800;53.928;27.662;2023-04-20T11:11:17;10.93;;;4.20;;
56911;SDS011;42800;53.928;27.662;2023-04-20T11:13:44;7.70;;;4.35;;
56911;SDS011;42800;53.928;27.662;2023-04-20T11:16:11;8.73;;;4.63;;
56911;SDS011;42800;53.928;27.662;2023-04-20T11:18:46;10.98;;;6.00;;
56911;SDS011;42800;53.928;27.662;2023-04-20T11:21:14;7.95;;;3.80;;
56911;SDS011;42800;53.928;27.662;2023-04-20T11:23:40;7.28;;;4.22;;
56911;SDS011;42800;53.928;27.662;2023-04-20T11:26:06;11.40;;;4.00;;
56911;SDS011;42800;53.928;27.662;2023-04-20T11:28:32;8.32;;;4.38;;
56911;SDS011;42800;53.928;27.662;2023-04-20T11:30:59;7.53;;;4.50;;
56911;SDS011;42800;53.928;27.662;2023-04-20T11:33:26;12.50;;;5.20;;
56911;SDS011;42800;53.928;27.662;2023-04-20T11:35:53;9.07;;;5.20;;
56911;SDS011;42800;53.928;27.662;2023-04-20T11:38:25;10.18;;;4.65;;
56911;SDS011;42800;53.928;27.662;2023-04-20T11:40:52;5.93;;;4.50;;
56911;SDS011;42800;53.928;27.662;2023-04-20T11:43:18;10.88;;;6.43;;
56911;SDS011;42800;53.928;27.662;2023-04-20T11:45:44;6.43;;;4.68;;
56911;SDS011;42800;53.928;27.662;2023-04-20T11:48:09;10.57;;;5.00;;
56911;SDS011;42800;53.928;27.662;2023-04-20T11:50:35;16.63;;;4.93;;
56911;SDS011;42800;53.928;27.662;2023-04-20T11:53:02;8.82;;;5.10;;
56911;SDS011;42800;53.928;27.662;2023-04-20T11:55:29;9.57;;;5.40;;
56911;SDS011;42800;53.928;27.662;2023-04-20T11:57:55;6.00;;;4.85;;
56911;SDS011;42800;53.928;27.662;2023-04-20T12:00:21;5.78;;;4.55;;
56911;SDS011;42800;53.928;27.662;2023-04-20T12:02:47;7.72;;;4.72;;
56911;SDS011;42800;53.928;27.662;2023-04-20T12:05:13;9.93;;;5.20;;
56911;SDS011;42800;53.928;27.662;2023-04-20T12:07:39;8.20;;;4.63;;
56911;SDS011;42800;53.928;27.662;2023-04-20T12:10:07;11.48;;;4.72;;
56911;SDS011;42800;53.928;27.662;2023-04-20T12:12:34;12.23;;;4.78;;
56911;SDS011;42800;53.928;27.662;2023-04-20T12:15:00;11.52;;;4.57;;
56911;SDS011;42800;53.928;27.662;2023-04-20T12:17:26;7.88;;;4.57;;
56911;SDS011;42800;53.928;27.662;2023-04-20T12:19:52;9.15;;;4.65;;
56911;SDS011;42800;53.928;27.662;2023-04-20T12:22:18;6.97;;;4.10;;
56911;SDS011;42800;53.928;27.662;2023-04-20T12:24:44;8.70;;;3.97;;
56911;SDS011;42800;53.928;27.662;2023-04-20T12:27:11;8.60;;;3.55;;
56911;SDS011;42800;53.928;27.662;2023-04-20T12:29:37;8.77;;;5.53;;
56911;SDS011;42800;53.928;27.662;2023-04-20T12:32:03;4.28;;;3.13;;
56911;SDS011;42800;53.928;27.662;2023-04-20T12:34:29;7.15;;;3.13;;
56911;SDS011;42800;53.928;27.662;2023-04-20T12:36:55;13.45;;;3.97;;
56911;SDS011;42800;53.928;27.662;2023-04-20T12:39:20;5.47;;;3.90;;
56911;SDS011;42800;53.928;27.662;2023-04-20T12:41:46;5.85;;;4.20;;
56911;SDS011;42800;53.928;27.662;2023-04-20T12:44:13;6.55;;;3.60;;
56911;SDS011;42800;53.928;27.662;2023-04-20T12:46:39;8.25;;;5.13;;
56911;SDS011;42800;53.928;27.662;2023-04-20T12:49:05;5.47;;;3.63;;
56911;SDS011;42800;53.928;27.662;2023-04-20T12:51:31;5.57;;;3.72;;
56911;SDS011;42800;53.928;27.662;2023-04-20T12:53:56;10.38;;;5.10;;
56911;SDS011;42800;53.928;27.662;2023-04-20T12:56:22;5.18;;;3.30;;
56911;SDS011;42800;53.928;27.662;2023-04-20T12:58:48;10.35;;;3.58;;
56911;SDS011;42800;53.928;27.662;2023-04-20T13:01:15;4.95;;;3.30;;
56911;SDS011;42800;53.928;27.662;2023-04-20T13:03:41;5.82;;;3.30;;
56911;SDS011;42800;53.928;27.662;2023-04-20T13:06:07;5.22;;;3.30;;
56911;SDS011;42800;53.928;27.662;2023-04-20T13:08:33;7.50;;;3.13;;
56911;SDS011;42800;53.928;27.662;2023-04-20T13:11:01;5.35;;;2.90;;
56911;SDS011;42800;53.928;27.662;2023-04-20T13:13:27;5.45;;;2.78;;
56911;SDS011;42800;53.928;27.662;2023-04-20T13:15:53;7.97;;;3.25;;
56911;SDS011;42800;53.928;27.662;2023-04-20T13:18:20;4.78;;;2.70;;
56911;SDS011;42800;53.928;27.662;2023-04-20T13:20:48;8.10;;;3.13;;
56911;SDS011;42800;53.928;27.662;2023-04-20T13:23:14;3.78;;;2.63;;
56911;SDS011;42800;53.928;27.662;2023-04-20T13:25:39;3.20;;;2.90;;
56911;SDS011;42800;53.928;27.662;2023-04-20T13:28:05;4.85;;;3.00;;
56911;SDS011;42800;53.928;27.662;2023-04-20T13:30:31;4.40;;;2.65;;
56911;SDS011;42800;53.928;27.662;2023-04-20T13:32:57;2.92;;;2.60;;
56911;SDS011;42800;53.928;27.662;2023-04-20T13:35:24;5.00;;;3.00;;
56911;SDS011;42800;53.928;27.662;2023-04-20T13:37:50;4.10;;;2.60;;
56911;SDS011;42800;53.928;27.662;2023-04-20T13:40:16;5.15;;;2.78;;
56911;SDS011;42800;53.928;27.662;2023-04-20T13:42:42;5.43;;;2.65;;
56911;SDS011;42800;53.928;27.662;2023-04-20T13:45:09;6.65;;;2.78;;
56911;SDS011;42800;53.928;27.662;2023-04-20T13:47:35;4.53;;;2.53;;
56911;SDS011;42800;53.928;27.662;2023-04-20T13:50:02;6.70;;;2.83;;
56911;SDS011;42800;53.928;27.662;2023-04-20T13:52:29;11.15;;;2.65;;
56911;SDS011;42800;53.928;27.662;2023-04-20T13:54:55;6.45;;;2.30;;
56911;SDS011;42800;53.928;27.662;2023-04-20T13:57:21;8.32;;;2.92;;
56911;SDS011;42800;53.928;27.662;2023-04-20T13:59:46;2.80;;;2.22;;
56911;SDS011;42800;53.928;27.662;2023-04-20T14:02:12;2.80;;;2.40;;
56911;SDS011;42800;53.928;27.662;2023-04-20T14:04:38;5.68;;;2.30;;
56911;SDS011;42800;53.928;27.662;2023-04-20T14:07:04;5.78;;;2.30;;
56911;SDS011;42800;53.928;27.662;2023-04-20T14:09:31;4.95;;;2.58;;
56911;SDS011;42800;53.928;27.662;2023-04-20T14:11:57;3.83;;;2.22;;
56911;SDS011;42800;53.928;27.662;2023-04-20T14:14:23;5.70;;;2.30;;
56911;SDS011;42800;53.928;27.662;2023-04-20T14:16:49;4.43;;;2.42;;
56911;SDS011;42800;53.928;27.662;2023-04-20T14:19:16;11.32;;;2.17;;
56911;SDS011;42800;53.928;27.662;2023-04-20T14:21:41;3.25;;;2.17;;
56911;SDS011;42800;53.928;27.662;2023-04-20T14:24:08;5.93;;;2.35;;